createdAt,value
2023-02-13T00:00:12.590Z,99.90
2023-02-13T00:02:39.374Z,99.90
2023-02-13T00:05:06.802Z,99.90
2023-02-13T00:07:33.475Z,99.90
2023-02-13T00:10:00.150Z,99.90
2023-02-13T00:12:26.901Z,99.90
2023-02-13T00:14:54.085Z,99.90
2023-02-13T00:17:20.829Z,99.90
2023-02-13T00:19:47.615Z,99.90
2023-02-13T00:22:16.917Z,99.90
2023-02-13T00:24:44.001Z,99.90
2023-02-13T00:27:10.880Z,99.90
2023-02-13T00:29:37.641Z,99.90
2023-02-13T00:32:04.631Z,99.90
2023-02-13T00:34:31.472Z,99.90
2023-02-13T00:36:58.189Z,99.90
2023-02-13T00:39:25.050Z,99.90
2023-02-13T00:41:51.804Z,99.90
2023-02-13T00:44:18.478Z,99.90
2023-02-13T00:46:45.267Z,99.90
2023-02-13T00:49:12.014Z,99.90
2023-02-13T00:51:38.692Z,99.90
2023-02-13T00:54:05.514Z,99.90
2023-02-13T00:56:32.281Z,99.90
2023-02-13T00:58:59.095Z,99.90
2023-02-13T01:01:26.154Z,99.90
2023-02-13T01:03:52.956Z,99.90
2023-02-13T01:06:19.659Z,99.90
2023-02-13T01:08:46.455Z,99.90
2023-02-13T01:11:13.283Z,99.90
2023-02-13T01:13:40.194Z,99.90
2023-02-13T01:16:07.322Z,99.90
2023-02-13T01:18:34.086Z,99.90
2023-02-13T01:21:03.634Z,99.90
2023-02-13T01:23:38.874Z,99.90
2023-02-13T01:26:07.649Z,99.90
2023-02-13T01:28:35.098Z,99.90
2023-02-13T01:31:02.675Z,99.90
2023-02-13T01:33:30.401Z,99.90
2023-02-13T01:35:58.070Z,99.90
2023-02-13T01:38:24.799Z,99.90
2023-02-13T01:40:53.834Z,99.90
2023-02-13T01:43:24.298Z,99.90
2023-02-13T01:45:56.353Z,99.90
2023-02-13T01:48:26.452Z,99.90
2023-02-13T01:50:55.864Z,99.90
2023-02-13T01:53:48.071Z,99.90
2023-02-13T01:56:36.829Z,99.90
2023-02-13T01:59:11.269Z,99.90
2023-02-13T02:01:38.506Z,99.90
2023-02-13T02:04:31.577Z,99.90
2023-02-13T02:07:04.948Z,99.90
2023-02-13T02:09:35.658Z,99.90
2023-02-13T02:12:36.320Z,99.90
2023-02-13T02:15:05.011Z,99.90
2023-02-13T02:17:31.795Z,99.90
2023-02-13T02:20:04.784Z,99.90
2023-02-13T02:22:56.316Z,99.90
2023-02-13T02:26:03.642Z,99.90
2023-02-13T02:29:01.454Z,99.90
2023-02-13T02:32:01.779Z,99.90
2023-02-13T02:34:37.364Z,99.90
2023-02-13T02:37:38.191Z,99.90
2023-02-13T02:40:25.353Z,99.90
2023-02-13T02:42:57.875Z,99.90
2023-02-13T02:45:40.427Z,99.90
2023-02-13T02:48:32.465Z,99.90
2023-02-13T02:51:14.457Z,99.90
2023-02-13T02:53:51.572Z,99.90
2023-02-13T02:56:30.651Z,99.90
2023-02-13T02:59:25.487Z,99.90
2023-02-13T03:02:13.456Z,99.90
2023-02-13T03:05:06.543Z,99.90
2023-02-13T03:07:33.441Z,99.90
2023-02-13T03:10:40.923Z,99.90
2023-02-13T03:13:41.976Z,99.90
2023-02-13T03:16:35.479Z,99.90
2023-02-13T03:19:21.140Z,99.90
2023-02-13T03:22:22.735Z,99.90
2023-02-13T03:25:30.161Z,99.90
2023-02-13T03:28:54.400Z,99.90
2023-02-13T03:31:49.799Z,99.90
2023-02-13T03:34:47.149Z,99.90
2023-02-13T03:37:34.710Z,99.90
2023-02-13T03:40:15.513Z,99.90
2023-02-13T03:42:50.847Z,99.90
2023-02-13T03:45:48.779Z,99.90
2023-02-13T03:48:38.066Z,99.90
2023-02-13T03:51:08.574Z,99.90
2023-02-13T03:53:38.278Z,99.90
2023-02-13T03:56:24.956Z,99.90
2023-02-13T03:59:13.295Z,99.90
2023-02-13T04:01:41.241Z,99.90
2023-02-13T04:04:25.543Z,99.90
2023-02-13T04:07:02.924Z,99.90
2023-02-13T04:09:30.963Z,99.90
2023-02-13T04:12:46.887Z,99.90
2023-02-13T04:15:18.707Z,99.90
2023-02-13T04:18:17.950Z,99.90
2023-02-13T04:20:44.977Z,99.90
2023-02-13T04:23:13.019Z,99.90
2023-02-13T04:25:43.268Z,99.90
2023-02-13T04:28:10.129Z,99.90
2023-02-13T04:30:37.244Z,99.90
2023-02-13T04:33:04.176Z,99.90
2023-02-13T04:35:30.899Z,99.90
2023-02-13T04:37:57.596Z,99.90
2023-02-13T04:40:24.330Z,99.90
2023-02-13T04:42:51.140Z,99.90
2023-02-13T04:45:18.264Z,99.90
2023-02-13T04:47:51.394Z,99.90
2023-02-13T04:50:18.271Z,99.90
2023-02-13T04:52:45.115Z,99.90
2023-02-13T04:55:11.851Z,99.90
2023-02-13T04:57:38.531Z,99.90
2023-02-13T05:00:06.637Z,99.90
2023-02-13T05:02:33.373Z,99.90
2023-02-13T05:05:00.121Z,99.90
2023-02-13T05:07:26.816Z,99.90
2023-02-13T05:09:53.467Z,99.90
2023-02-13T05:12:20.116Z,99.90
2023-02-13T05:14:46.962Z,99.90
2023-02-13T05:17:13.726Z,99.90
2023-02-13T05:19:40.648Z,99.90
2023-02-13T05:22:26.807Z,99.90
2023-02-13T05:24:53.525Z,99.90
2023-02-13T05:27:20.226Z,99.90
2023-02-13T05:29:47.165Z,99.90
2023-02-13T05:32:13.912Z,99.90
2023-02-13T05:34:40.692Z,99.90
2023-02-13T05:37:07.416Z,99.90
2023-02-13T05:39:34.173Z,99.90
2023-02-13T05:42:00.870Z,99.90
2023-02-13T05:44:27.673Z,99.90
2023-02-13T05:46:54.331Z,99.90
2023-02-13T05:49:21.155Z,99.90
2023-02-13T05:51:47.979Z,99.90
2023-02-13T05:54:14.785Z,99.90
2023-02-13T05:56:41.716Z,99.90
2023-02-13T05:59:08.581Z,99.90
2023-02-13T06:01:35.365Z,99.90
2023-02-13T06:04:03.872Z,99.90
2023-02-13T06:06:31.052Z,99.90
2023-02-13T06:08:57.780Z,99.90
2023-02-13T06:11:24.512Z,99.90
2023-02-13T06:13:51.178Z,99.90
2023-02-13T06:16:17.976Z,99.90
2023-02-13T06:18:44.706Z,99.90
2023-02-13T06:21:11.393Z,99.90
2023-02-13T06:23:38.251Z,99.90
2023-02-13T06:26:07.432Z,99.90
2023-02-13T06:28:34.719Z,99.90
2023-02-13T06:31:02.126Z,99.90
2023-02-13T06:33:29.202Z,99.90
2023-02-13T06:35:55.862Z,99.90
2023-02-13T06:38:22.694Z,99.90
2023-02-13T06:40:50.059Z,99.90
2023-02-13T06:43:17.938Z,99.90
2023-02-13T06:45:46.911Z,99.90
2023-02-13T06:48:14.467Z,99.90
2023-02-13T06:50:41.360Z,99.90
2023-02-13T06:53:08.316Z,99.90
2023-02-13T06:55:35.991Z,99.90
2023-02-13T06:58:02.750Z,99.90
2023-02-13T07:00:29.547Z,99.90
2023-02-13T07:03:02.674Z,99.90
2023-02-13T07:05:29.760Z,99.90
2023-02-13T07:07:56.586Z,99.90
2023-02-13T07:10:23.556Z,99.90
2023-02-13T07:13:03.636Z,99.90
2023-02-13T07:15:33.211Z,99.90
2023-02-13T07:18:00.520Z,99.90
2023-02-13T07:20:28.200Z,99.90
2023-02-13T07:23:02.471Z,99.90
2023-02-13T07:25:29.734Z,99.90
2023-02-13T07:28:07.347Z,99.90
2023-02-13T07:30:34.985Z,99.90
2023-02-13T07:33:03.452Z,99.90
2023-02-13T07:35:30.420Z,99.90
2023-02-13T07:37:57.163Z,99.90
2023-02-13T07:40:23.958Z,99.90
2023-02-13T07:42:50.659Z,99.90
2023-02-13T07:45:17.490Z,99.90
2023-02-13T07:47:44.309Z,99.90
2023-02-13T07:50:11.746Z,99.90
2023-02-13T07:52:38.524Z,99.90
2023-02-13T07:55:06.280Z,99.90
2023-02-13T07:57:33.558Z,99.90
2023-02-13T08:00:00.484Z,99.90
2023-02-13T08:02:27.237Z,99.90
2023-02-13T08:04:54.009Z,99.90
2023-02-13T08:07:20.723Z,99.90
2023-02-13T08:10:06.338Z,99.90
2023-02-13T08:12:35.825Z,99.90
2023-02-13T08:15:03.049Z,99.90
2023-02-13T08:17:29.812Z,99.90
2023-02-13T08:19:56.589Z,99.90
2023-02-13T08:22:23.506Z,99.90
2023-02-13T08:24:50.227Z,99.90
2023-02-13T08:27:17.068Z,99.90
2023-02-13T08:29:43.937Z,99.90
2023-02-13T08:32:10.837Z,99.90
2023-02-13T08:34:37.649Z,99.90
2023-02-13T08:37:05.196Z,99.90
2023-02-13T08:39:32.009Z,99.90
2023-02-13T08:41:58.735Z,99.90
2023-02-13T08:44:25.510Z,99.90
2023-02-13T08:46:52.423Z,99.90
2023-02-13T08:49:19.369Z,99.90
2023-02-13T08:51:46.141Z,99.90
2023-02-13T08:54:12.880Z,99.90
2023-02-13T08:56:39.632Z,99.90
2023-02-13T08:59:06.354Z,99.90
2023-02-13T09:01:33.151Z,99.90
2023-02-13T09:03:59.942Z,99.90
2023-02-13T09:06:28.454Z,99.90
2023-02-13T09:08:55.631Z,99.90
2023-02-13T09:11:23.569Z,99.90
2023-02-13T09:13:53.973Z,99.90
2023-02-13T09:16:21.217Z,99.90
2023-02-13T09:18:48.916Z,99.90
2023-02-13T09:21:16.476Z,99.90
2023-02-13T09:23:43.291Z,99.90
2023-02-13T09:26:13.416Z,99.90
2023-02-13T09:28:41.126Z,99.90
2023-02-13T09:31:10.111Z,99.90
2023-02-13T09:33:37.216Z,99.90
2023-02-13T09:36:09.524Z,99.90
2023-02-13T09:38:36.333Z,99.90
2023-02-13T09:41:07.852Z,99.90
2023-02-13T09:44:02.576Z,99.90
2023-02-13T09:46:32.024Z,99.90
2023-02-13T09:49:02.747Z,99.90
2023-02-13T09:51:29.690Z,99.90
2023-02-13T09:54:07.717Z,99.90
2023-02-13T09:56:49.512Z,99.90
2023-02-13T09:59:42.706Z,99.90
2023-02-13T10:02:27.815Z,99.90
2023-02-13T10:05:19.497Z,99.90
2023-02-13T10:08:06.661Z,99.90
2023-02-13T10:11:04.939Z,99.90
2023-02-13T10:13:55.711Z,99.90
2023-02-13T10:16:27.284Z,99.90
2023-02-13T10:19:02.377Z,99.90
2023-02-13T10:21:34.269Z,99.90
2023-02-13T10:24:39.567Z,99.90
2023-02-13T10:27:26.126Z,99.80
2023-02-13T10:30:06.930Z,99.60
2023-02-13T10:33:22.005Z,99.30
2023-02-13T10:36:11.482Z,98.60
2023-02-13T10:39:04.611Z,98.80
2023-02-13T10:41:46.097Z,98.60
2023-02-13T10:44:31.590Z,98.60
2023-02-13T10:47:01.283Z,98.60
2023-02-13T10:49:46.818Z,98.10
2023-02-13T10:52:39.467Z,97.60
2023-02-13T10:55:30.493Z,97.70
2023-02-13T10:58:38.423Z,96.70
2023-02-13T11:01:13.807Z,96.70
2023-02-13T11:03:40.670Z,96.70
2023-02-13T11:06:14.123Z,96.50
2023-02-13T11:08:44.197Z,96.30
2023-02-13T11:11:34.359Z,96.20
2023-02-13T11:14:19.306Z,96.10
2023-02-13T11:17:15.590Z,96.40
2023-02-13T11:19:51.758Z,95.50
2023-02-13T11:22:37.020Z,95.70
2023-02-13T11:25:22.285Z,95.50
2023-02-13T11:27:51.405Z,94.90
2023-02-13T11:30:24.068Z,94.90
2023-02-13T11:33:17.344Z,94.90
2023-02-13T11:35:47.893Z,95.00
2023-02-13T11:38:20.108Z,94.90
2023-02-13T11:40:53.513Z,94.40
2023-02-13T11:43:47.392Z,93.80
2023-02-13T11:46:25.665Z,94.20
2023-02-13T11:49:04.682Z,94.00
2023-02-13T11:51:42.873Z,93.90
2023-02-13T11:54:35.577Z,93.80
2023-02-13T11:57:19.138Z,93.70
2023-02-13T11:59:47.761Z,94.00
2023-02-13T12:02:35.589Z,93.70
2023-02-13T12:05:28.412Z,93.80
2023-02-13T12:08:01.372Z,93.60
2023-02-13T12:10:31.575Z,93.40
2023-02-13T12:13:02.206Z,93.50
2023-02-13T12:15:35.298Z,93.30
2023-02-13T12:18:20.656Z,93.50
2023-02-13T12:21:12.526Z,93.20
2023-02-13T12:24:08.529Z,93.30
2023-02-13T12:26:40.995Z,92.80
2023-02-13T12:29:30.202Z,92.60
2023-02-13T12:32:07.500Z,92.20
2023-02-13T12:35:07.159Z,92.10
2023-02-13T12:37:39.692Z,92.40
2023-02-13T12:40:26.596Z,92.20
2023-02-13T12:43:04.254Z,92.10
2023-02-13T12:45:31.033Z,92.20
2023-02-13T12:48:27.840Z,91.80
2023-02-13T12:51:39.123Z,91.60
2023-02-13T12:54:37.530Z,91.80
2023-02-13T12:57:19.642Z,91.40
2023-02-13T13:00:24.058Z,91.10
2023-02-13T13:03:15.302Z,90.90
2023-02-13T13:05:45.242Z,91.00
2023-02-13T13:08:27.939Z,91.00
2023-02-13T13:11:15.970Z,91.20
2023-02-13T13:14:11.374Z,91.20
2023-02-13T13:16:57.723Z,90.60
2023-02-13T13:19:39.397Z,90.30
2023-02-13T13:22:30.362Z,90.30
2023-02-13T13:25:23.452Z,89.00
2023-02-13T13:27:56.766Z,89.60
2023-02-13T13:30:30.203Z,89.20
2023-02-13T13:33:19.991Z,89.10
2023-02-13T13:36:05.558Z,88.50
2023-02-13T13:39:21.702Z,87.40
2023-02-13T13:41:55.233Z,87.50
2023-02-13T13:44:27.858Z,87.80
2023-02-13T13:46:57.593Z,88.10
2023-02-13T13:49:52.737Z,86.00
2023-02-13T13:52:22.460Z,85.20
2023-02-13T13:54:52.560Z,85.10
2023-02-13T13:57:57.507Z,85.90
2023-02-13T14:00:29.850Z,85.40
2023-02-13T14:02:59.301Z,86.10
2023-02-13T14:05:27.683Z,85.90
2023-02-13T14:07:59.337Z,84.40
2023-02-13T14:10:26.027Z,83.00
2023-02-13T14:12:55.730Z,82.00
2023-02-13T14:15:45.563Z,81.90
2023-02-13T14:18:20.224Z,81.40
2023-02-13T14:20:50.468Z,82.20
2023-02-13T14:23:21.562Z,82.30
2023-02-13T14:25:48.623Z,83.00
2023-02-13T14:28:23.141Z,83.40
2023-02-13T14:30:51.537Z,83.30
2023-02-13T14:33:30.286Z,83.70
2023-02-13T14:36:21.598Z,84.50
2023-02-13T14:39:01.194Z,84.60
2023-02-13T14:41:55.428Z,84.60
2023-02-13T14:44:44.985Z,85.30
2023-02-13T14:47:30.257Z,86.60
2023-02-13T14:49:59.563Z,87.20
2023-02-13T14:52:33.198Z,87.60
2023-02-13T14:55:04.439Z,86.90
2023-02-13T14:57:34.558Z,86.60
2023-02-13T15:00:31.669Z,85.40
2023-02-13T15:03:08.041Z,86.40
2023-02-13T15:05:35.904Z,86.20
2023-02-13T15:08:13.393Z,87.80
2023-02-13T15:10:41.918Z,89.00
2023-02-13T15:13:22.688Z,89.50
2023-02-13T15:15:55.787Z,90.00
2023-02-13T15:18:47.936Z,90.00
2023-02-13T15:21:21.587Z,90.20
2023-02-13T15:23:55.350Z,90.20
2023-02-13T15:26:26.333Z,90.10
2023-02-13T15:29:01.584Z,90.40
2023-02-13T15:31:36.722Z,90.60
2023-02-13T15:34:03.585Z,90.60
2023-02-13T15:36:41.399Z,90.70
2023-02-13T15:39:15.631Z,91.00
2023-02-13T15:41:54.730Z,91.10
2023-02-13T15:44:34.133Z,91.10
2023-02-13T15:47:29.921Z,91.30
2023-02-13T15:49:57.263Z,91.40
2023-02-13T15:52:31.815Z,92.00
2023-02-13T15:54:59.229Z,91.80
2023-02-13T15:57:27.581Z,92.00
2023-02-13T16:00:00.371Z,92.10
2023-02-13T16:02:40.091Z,92.30
2023-02-13T16:05:07.820Z,92.60
2023-02-13T16:07:58.674Z,92.70
2023-02-13T16:10:36.477Z,92.80
2023-02-13T16:13:06.506Z,92.90
2023-02-13T16:15:36.844Z,93.00
2023-02-13T16:18:06.241Z,93.10
2023-02-13T16:20:35.007Z,93.20
2023-02-13T16:23:06.556Z,93.30
2023-02-13T16:25:35.525Z,93.40
2023-02-13T16:28:17.963Z,93.50
2023-02-13T16:30:50.899Z,93.60
2023-02-13T16:33:20.608Z,93.70
2023-02-13T16:35:57.039Z,93.80
2023-02-13T16:38:41.544Z,93.90
2023-02-13T16:41:17.508Z,94.00
2023-02-13T16:43:49.073Z,94.10
2023-02-13T16:46:17.710Z,94.20
2023-02-13T16:48:47.961Z,94.30
2023-02-13T16:51:15.864Z,94.80
2023-02-13T16:53:42.629Z,94.50
2023-02-13T16:56:11.351Z,94.60
2023-02-13T16:58:38.137Z,95.20
2023-02-13T17:01:06.003Z,95.20
2023-02-13T17:03:33.041Z,95.30
2023-02-13T17:06:03.565Z,95.30
2023-02-13T17:08:33.376Z,95.40
2023-02-13T17:11:07.984Z,95.40
2023-02-13T17:13:35.116Z,95.50
2023-02-13T17:16:01.934Z,95.60
2023-02-13T17:18:28.758Z,95.90
2023-02-13T17:20:55.540Z,95.70
2023-02-13T17:23:24.584Z,95.70
2023-02-13T17:25:53.746Z,95.70
2023-02-13T17:28:24.231Z,95.70
2023-02-13T17:30:54.114Z,95.80
2023-02-13T17:33:26.731Z,96.40
2023-02-13T17:35:54.189Z,96.10
2023-02-13T17:38:21.391Z,96.00
2023-02-13T17:40:48.403Z,96.10
2023-02-13T17:43:19.040Z,96.10
2023-02-13T17:45:46.482Z,96.10
2023-02-13T17:48:13.412Z,96.10
2023-02-13T17:50:40.299Z,99.90
2023-02-13T17:53:16.378Z,99.90
2023-02-13T17:55:43.128Z,99.90
2023-02-13T17:58:09.888Z,99.90
2023-02-13T18:00:36.722Z,99.30
2023-02-13T18:03:04.599Z,97.50
2023-02-13T18:05:33.108Z,97.40
2023-02-13T18:08:03.632Z,97.10
2023-02-13T18:10:33.587Z,97.00
2023-02-13T18:13:04.378Z,97.10
2023-02-13T18:15:39.193Z,97.30
2023-02-13T18:18:06.224Z,97.30
2023-02-13T18:20:33.156Z,97.30
2023-02-13T18:23:11.486Z,97.40
2023-02-13T18:25:38.251Z,97.60
2023-02-13T18:28:09.713Z,97.60
2023-02-13T18:30:41.724Z,97.60
2023-02-13T18:33:08.584Z,97.70
2023-02-13T18:35:42.165Z,97.80
2023-02-13T18:38:08.923Z,97.70
2023-02-13T18:40:36.232Z,97.90
2023-02-13T18:43:02.910Z,97.80
2023-02-13T18:45:33.066Z,98.00
2023-02-13T18:48:03.329Z,97.90
2023-02-13T18:50:30.088Z,98.00
2023-02-13T18:52:56.886Z,98.10
2023-02-13T18:55:23.663Z,98.00
2023-02-13T18:57:53.680Z,98.10
2023-02-13T19:00:22.252Z,98.00
2023-02-13T19:02:49.053Z,98.00
2023-02-13T19:05:15.868Z,98.00
2023-02-13T19:07:42.632Z,97.90
2023-02-13T19:10:10.003Z,98.00
2023-02-13T19:12:36.952Z,97.90
2023-02-13T19:15:04.444Z,98.00
2023-02-13T19:17:31.292Z,98.00
2023-02-13T19:20:07.245Z,98.10
2023-02-13T19:22:34.112Z,98.20
2023-02-13T19:25:01.753Z,98.10
2023-02-13T19:27:28.789Z,98.30
2023-02-13T19:29:55.553Z,98.20
2023-02-13T19:32:22.325Z,98.30
2023-02-13T19:34:49.149Z,98.20
2023-02-13T19:37:15.876Z,98.20
2023-02-13T19:39:42.686Z,98.20
2023-02-13T19:42:09.586Z,98.30
2023-02-13T19:44:36.271Z,98.30
2023-02-13T19:47:03.026Z,98.40
2023-02-13T19:49:29.834Z,98.30
2023-02-13T19:51:56.579Z,98.30
2023-02-13T19:54:23.505Z,98.30
2023-02-13T19:56:50.564Z,98.40
2023-02-13T19:59:17.408Z,98.30
2023-02-13T20:01:45.668Z,98.50
2023-02-13T20:04:12.471Z,98.40
2023-02-13T20:06:39.701Z,98.50
2023-02-13T20:09:12.101Z,98.60
2023-02-13T20:11:40.592Z,98.20
2023-02-13T20:14:14.326Z,98.30
2023-02-13T20:16:43.023Z,98.30
2023-02-13T20:19:11.752Z,98.20
2023-02-13T20:21:38.977Z,98.30
2023-02-13T20:24:06.104Z,98.30
2023-02-13T20:26:33.363Z,98.40
2023-02-13T20:29:00.189Z,98.60
2023-02-13T20:31:29.367Z,98.40
2023-02-13T20:33:57.915Z,98.60
2023-02-13T20:36:27.798Z,98.30
2023-02-13T20:38:57.835Z,98.60
2023-02-13T20:41:27.373Z,98.50
2023-02-13T20:44:02.994Z,98.50
2023-02-13T20:46:35.138Z,98.70
2023-02-13T20:49:01.934Z,98.90
2023-02-13T20:51:29.590Z,98.60
2023-02-13T20:53:56.405Z,98.50
2023-02-13T20:56:25.742Z,98.50
2023-02-13T20:58:55.563Z,98.50
2023-02-13T21:01:27.931Z,98.60
2023-02-13T21:03:55.935Z,98.20
2023-02-13T21:06:31.902Z,98.20
2023-02-13T21:08:58.964Z,98.10
2023-02-13T21:11:28.244Z,98.30
2023-02-13T21:13:56.516Z,97.90
2023-02-13T21:16:26.510Z,98.00
2023-02-13T21:18:56.427Z,98.00
2023-02-13T21:21:25.086Z,98.30
2023-02-13T21:23:56.901Z,98.30
2023-02-13T21:26:24.607Z,98.40
2023-02-13T21:28:52.109Z,98.50
2023-02-13T21:31:29.299Z,98.50
2023-02-13T21:34:05.247Z,98.60
2023-02-13T21:36:33.880Z,98.70
2023-02-13T21:39:00.927Z,98.90
2023-02-13T21:41:27.850Z,99.00
2023-02-13T21:43:55.110Z,99.10
2023-02-13T21:46:25.149Z,99.00
2023-02-13T21:49:00.563Z,99.10
2023-02-13T21:51:29.449Z,99.60
2023-02-13T21:53:56.640Z,99.00
2023-02-13T21:56:26.323Z,99.30
2023-02-13T21:58:53.225Z,99.30
2023-02-13T22:01:26.405Z,99.40
2023-02-13T22:03:57.832Z,99.50
2023-02-13T22:06:26.098Z,99.60
2023-02-13T22:08:58.056Z,99.60
2023-02-13T22:11:25.300Z,99.60
2023-02-13T22:13:55.889Z,99.50
2023-02-13T22:16:23.463Z,99.30
2023-02-13T22:18:50.721Z,98.90
2023-02-13T22:21:23.001Z,99.10
2023-02-13T22:23:50.361Z,99.20
2023-02-13T22:26:19.806Z,99.20
2023-02-13T22:28:47.062Z,99.20
2023-02-13T22:31:15.168Z,99.00
2023-02-13T22:33:42.939Z,99.40
2023-02-13T22:36:12.591Z,99.00
2023-02-13T22:38:40.788Z,99.10
2023-02-13T22:41:14.288Z,99.30
2023-02-13T22:43:42.107Z,99.20
2023-02-13T22:46:16.158Z,99.20
2023-02-13T22:48:46.850Z,99.50
2023-02-13T22:51:19.723Z,99.60
2023-02-13T22:53:48.373Z,99.80
2023-02-13T22:56:15.227Z,99.80
2023-02-13T22:58:41.942Z,99.80
2023-02-13T23:01:14.545Z,99.50
2023-02-13T23:03:42.016Z,99.70
2023-02-13T23:06:10.522Z,99.60
2023-02-13T23:08:38.441Z,99.80
2023-02-13T23:11:31.807Z,99.80
2023-02-13T23:13:59.038Z,99.90
2023-02-13T23:16:26.952Z,99.90
2023-02-13T23:18:55.703Z,99.70
2023-02-13T23:21:22.728Z,99.50
2023-02-13T23:23:49.708Z,99.40
2023-02-13T23:26:16.497Z,99.40
2023-02-13T23:28:43.329Z,99.40
2023-02-13T23:31:10.460Z,99.70
2023-02-13T23:33:37.413Z,99.80
2023-02-13T23:36:04.539Z,99.90
2023-02-13T23:38:31.340Z,99.90
2023-02-13T23:41:13.621Z,99.90
2023-02-13T23:43:40.397Z,99.90
2023-02-13T23:46:07.683Z,99.90
2023-02-13T23:48:34.873Z,99.90
2023-02-13T23:51:01.976Z,99.90
2023-02-13T23:53:29.100Z,99.90
2023-02-13T23:55:58.946Z,99.80
2023-02-13T23:58:25.701Z,99.60
